Time;durP1;ratioP1;P1;durP2;ratioP2;P2;SDS_P1;SDS_P2;PMS_P1;PMS_P2;Temp;Humidity;BMP_temperature;BMP_pressure;BME280_temperature;BME280_humidity;BME280_pressure;Samples;Min_cycle;Max_cycle;Signal;HPM_P1;HPM_P2
2022/04/18 00:00:07;;;;;;;6.30;2.60;;;12.50;37.30;;;;;;4995156;28;20469;-86
2022/04/18 00:02:36;;;;;;;2.60;2.40;;;12.60;36.70;;;;;;4981814;28;20480;-86
2022/04/18 00:05:08;;;;;;;3.10;2.43;;;12.60;37.20;;;;;;4985485;28;20470;-86
2022/04/18 00:07:38;;;;;;;2.57;2.13;;;12.60;37.10;;;;;;4961025;28;20868;-86
2022/04/18 00:10:07;;;;;;;2.83;2.40;;;12.60;36.90;;;;;;4998645;28;20564;-86
2022/04/18 00:12:35;;;;;;;4.00;2.40;;;12.70;37.00;;;;;;4996441;28;20497;-86
2022/04/18 00:15:03;;;;;;;3.80;2.47;;;12.60;37.10;;;;;;4980526;28;20441;-87
2022/04/18 00:17:32;;;;;;;2.40;2.20;;;12.60;37.10;;;;;;4994123;28;20528;-91
2022/04/18 00:20:00;;;;;;;3.10;2.90;;;12.70;37.30;;;;;;4999664;28;20452;-87
2022/04/18 00:22:29;;;;;;;2.60;2.40;;;12.60;37.20;;;;;;4976351;28;20446;-86
2022/04/18 00:24:58;;;;;;;3.93;2.97;;;12.50;36.60;;;;;;4991748;28;20463;-86
2022/04/18 00:27:26;;;;;;;4.67;2.90;;;12.40;36.00;;;;;;4978552;28;20445;-86
2022/04/18 00:29:54;;;;;;;3.80;2.80;;;12.30;36.40;;;;;;4993705;28;20838;-86
2022/04/18 00:32:24;;;;;;;2.80;2.57;;;12.30;37.60;;;;;;4973758;28;20455;-87
2022/04/18 00:34:54;;;;;;;3.10;2.77;;;12.30;37.90;;;;;;4974554;28;20442;-88
2022/04/18 00:37:23;;;;;;;3.20;2.50;;;11.90;37.60;;;;;;4998282;28;20436;-93
2022/04/18 00:39:51;;;;;;;3.10;2.90;;;11.60;38.40;;;;;;4983324;28;20986;-86
2022/04/18 00:42:20;;;;;;;3.00;2.50;;;11.60;38.40;;;;;;4999601;28;20506;-89
2022/04/18 00:44:49;;;;;;;2.77;2.53;;;11.80;38.70;;;;;;4995035;28;20815;-86
2022/04/18 00:47:17;;;;;;;3.80;2.40;;;11.50;38.70;;;;;;4979261;28;20463;-86
2022/04/18 00:49:45;;;;;;;6.80;2.80;;;11.00;39.30;;;;;;4983303;28;20479;-87
2022/04/18 00:52:13;;;;;;;3.90;2.93;;;11.10;39.70;;;;;;4988816;28;20448;-88
2022/04/18 00:54:44;;;;;;;2.83;2.33;;;11.40;40.10;;;;;;4987566;28;20432;-90
2022/04/18 00:57:12;;;;;;;3.67;2.30;;;11.50;39.70;;;;;;4990588;28;21156;-88
2022/04/18 00:59:43;;;;;;;2.77;2.53;;;11.60;39.20;;;;;;4979111;28;20522;-86
2022/04/18 01:02:13;;;;;;;2.63;2.43;;;11.80;38.80;;;;;;4981662;28;20501;-87
2022/04/18 01:04:40;;;;;;;2.90;2.53;;;11.80;38.60;;;;;;4969822;28;20468;-86
2022/04/18 01:07:10;;;;;;;2.57;2.23;;;11.90;38.40;;;;;;4986965;28;20958;-93
2022/04/18 01:09:38;;;;;;;3.30;2.00;;;11.90;38.30;;;;;;4985652;28;20771;-88
2022/04/18 01:12:08;;;;;;;3.00;2.60;;;11.90;38.60;;;;;;4965915;28;20452;-88
2022/04/18 01:14:59;;;;;;;3.87;2.63;;;11.90;38.60;;;;;;4979880;28;20543;-90
2022/04/18 01:17:49;;;;;;;3.77;2.60;;;11.90;38.60;;;;;;4996999;28;20468;-89
2022/04/18 01:20:34;;;;;;;3.30;2.93;;;11.90;38.80;;;;;;4971718;28;20534;-90
2022/04/18 01:23:15;;;;;;;3.37;2.90;;;11.80;38.60;;;;;;4985149;28;20528;-91
2022/04/18 01:29:01;;;;;;;3.27;2.93;;;11.70;38.70;;;;;;4969956;28;20501;-88
2022/04/18 01:31:33;;;;;;;2.93;2.60;;;11.60;38.90;;;;;;4970368;28;20456;-91
2022/04/18 01:34:03;;;;;;;4.80;2.67;;;11.50;39.30;;;;;;4977390;28;20539;-87
2022/04/18 01:36:32;;;;;;;3.70;3.00;;;11.50;39.70;;;;;;4980460;28;20441;-92
2022/04/18 01:39:04;;;;;;;2.73;2.47;;;11.50;39.70;;;;;;5052041;28;20472;-89
2022/04/18 01:41:33;;;;;;;5.30;2.87;;;11.50;39.40;;;;;;5000205;28;20554;-88
2022/04/18 01:44:00;;;;;;;3.33;2.37;;;11.50;39.20;;;;;;4971220;28;20466;-89
2022/04/18 01:46:29;;;;;;;4.43;3.20;;;11.50;39.10;;;;;;4987006;28;20455;-89
2022/04/18 01:48:58;;;;;;;3.87;3.07;;;11.50;39.40;;;;;;4985247;28;20463;-88
2022/04/18 01:51:25;;;;;;;3.97;3.20;;;11.50;39.30;;;;;;4978441;28;21250;-88
2022/04/18 01:53:54;;;;;;;3.50;3.23;;;11.50;39.20;;;;;;4967464;28;20450;-90
2022/04/18 01:56:24;;;;;;;3.37;2.60;;;11.50;39.20;;;;;;4978856;28;20460;-89
2022/04/18 01:58:53;;;;;;;4.13;3.00;;;11.40;39.30;;;;;;4977940;28;20461;-88
2022/04/18 02:01:21;;;;;;;4.33;2.57;;;11.40;39.20;;;;;;4970955;28;20538;-89
2022/04/18 02:03:48;;;;;;;3.80;2.40;;;11.30;39.10;;;;;;4981294;28;20499;-90
2022/04/18 02:06:18;;;;;;;2.37;2.17;;;11.10;39.20;;;;;;4979058;28;20439;-88
2022/04/18 02:08:47;;;;;;;2.40;2.20;;;10.90;39.90;;;;;;4998617;28;20460;-94
2022/04/18 02:11:17;;;;;;;3.23;2.50;;;10.50;40.90;;;;;;4983897;28;20555;-88
2022/04/18 02:13:48;;;;;;;2.90;2.30;;;10.30;41.20;;;;;;4985295;28;20480;-88
2022/04/18 02:16:16;;;;;;;3.97;3.03;;;10.10;42.10;;;;;;4980303;28;20480;-88
2022/04/18 02:18:47;;;;;;;2.57;2.37;;;10.30;42.50;;;;;;4979646;28;20467;-90
2022/04/18 02:21:17;;;;;;;3.43;2.47;;;10.50;42.20;;;;;;4987446;28;20450;-92
2022/04/18 02:23:45;;;;;;;5.60;3.60;;;10.70;42.40;;;;;;4993621;28;20433;-87
2022/04/18 02:26:14;;;;;;;4.13;3.20;;;10.80;42.20;;;;;;4963681;28;20512;-88
2022/04/18 02:28:44;;;;;;;3.40;2.60;;;10.90;42.40;;;;;;4998917;28;20471;-89
2022/04/18 02:31:16;;;;;;;4.77;2.87;;;10.90;42.10;;;;;;4980863;28;20440;-88
2022/04/18 02:33:44;;;;;;;4.50;3.23;;;11.00;41.70;;;;;;4986666;28;20497;-89
2022/04/18 02:36:13;;;;;;;2.70;2.17;;;10.90;41.50;;;;;;4963563;28;20444;-89
2022/04/18 02:38:41;;;;;;;3.53;2.63;;;10.80;41.20;;;;;;4982517;28;21049;-88
2022/04/18 02:41:09;;;;;;;3.40;2.70;;;10.50;41.20;;;;;;4987023;28;20465;-91
2022/04/18 02:43:37;;;;;;;4.30;3.10;;;10.40;42.20;;;;;;4994790;28;20436;-88
2022/04/18 02:46:12;;;;;;;4.57;2.80;;;10.40;42.60;;;;;;4984828;28;20467;-90
2022/04/18 02:48:46;;;;;;;3.30;3.00;;;10.50;42.40;;;;;;4988483;28;20812;-89
2022/04/18 02:51:17;;;;;;;2.83;2.63;;;10.60;41.90;;;;;;4963514;28;20881;-91
2022/04/18 02:53:46;;;;;;;5.60;3.03;;;10.70;42.10;;;;;;4977882;28;20485;-91
2022/04/18 02:56:13;;;;;;;3.50;2.50;;;10.70;42.10;;;;;;4976405;28;21206;-88
2022/04/18 02:58:48;;;;;;;8.00;3.10;;;10.70;41.70;;;;;;4966812;28;20564;-90
2022/04/18 03:01:15;;;;;;;5.17;2.50;;;10.70;41.60;;;;;;4974826;28;20452;-90
2022/04/18 03:03:46;;;;;;;4.10;3.27;;;10.60;41.50;;;;;;4971826;28;20452;-90
2022/04/18 03:06:14;;;;;;;2.90;2.37;;;10.60;41.70;;;;;;4982837;28;20467;-88
2022/04/18 03:08:42;;;;;;;3.70;2.43;;;10.60;41.50;;;;;;4970150;28;20467;-91
2022/04/18 03:11:10;;;;;;;3.00;2.70;;;10.60;41.50;;;;;;4986086;28;20461;-88
2022/04/18 03:13:44;;;;;;;5.83;2.63;;;10.60;41.70;;;;;;4971448;28;20559;-92
2022/04/18 03:16:19;;;;;;;4.27;3.10;;;10.60;41.80;;;;;;4985243;28;20523;-91
2022/04/18 03:18:48;;;;;;;2.53;2.33;;;10.60;42.10;;;;;;4981879;28;21002;-91
2022/04/18 03:21:17;;;;;;;4.10;3.53;;;10.50;42.30;;;;;;4976105;28;20452;-90
2022/04/18 03:23:46;;;;;;;4.10;2.20;;;10.50;42.10;;;;;;4979500;28;20449;-91
2022/04/18 03:26:23;;;;;;;3.33;2.97;;;10.50;41.90;;;;;;5063354;28;20462;-89
2022/04/18 03:29:03;;;;;;;2.93;2.73;;;10.50;41.90;;;;;;4979695;28;20483;-89
2022/04/18 03:31:32;;;;;;;3.50;2.70;;;10.40;42.30;;;;;;4984273;28;20460;-88
2022/04/18 03:34:03;;;;;;;8.33;3.67;;;10.30;41.90;;;;;;4984886;28;20440;-90
2022/04/18 03:42:09;;;;;;;3.13;2.50;;;10.30;42.00;;;;;;4966524;28;20459;-90
2022/04/18 03:44:43;;;;;;;5.07;2.97;;;10.20;42.00;;;;;;5007329;28;20472;-89
2022/04/18 03:47:12;;;;;;;4.80;2.70;;;10.20;42.00;;;;;;4963627;28;20450;-90
2022/04/18 03:49:42;;;;;;;7.40;2.93;;;10.20;42.60;;;;;;4980951;28;20479;-89
2022/04/18 03:52:11;;;;;;;3.77;3.13;;;10.20;43.00;;;;;;4968595;28;20544;-89
2022/04/18 03:54:42;;;;;;;3.93;3.30;;;10.00;43.10;;;;;;4968406;28;20451;-89
2022/04/18 03:57:13;;;;;;;4.07;3.13;;;10.00;43.10;;;;;;4977965;28;21269;-91
2022/04/18 03:59:45;;;;;;;4.97;2.97;;;9.90;44.30;;;;;;4963736;28;20472;-89
2022/04/18 04:02:14;;;;;;;3.00;2.70;;;9.90;43.90;;;;;;4962813;28;20509;-89
2022/04/18 04:04:48;;;;;;;3.60;3.20;;;10.00;42.60;;;;;;4969788;28;20832;-89
2022/04/18 04:07:17;;;;;;;2.43;2.23;;;10.00;42.50;;;;;;4965979;28;20981;-88
2022/04/18 04:09:49;;;;;;;3.80;2.77;;;10.00;42.30;;;;;;4965385;28;20816;-88
2022/04/18 04:12:23;;;;;;;4.90;2.50;;;10.10;42.40;;;;;;4986118;28;20428;-89
2022/04/18 04:15:26;;;;;;;3.93;2.57;;;10.10;42.10;;;;;;4998191;28;20453;-89
2022/04/18 04:18:05;;;;;;;5.47;3.20;;;10.00;42.10;;;;;;4963401;28;20477;-89
2022/04/18 04:20:35;;;;;;;3.03;2.77;;;10.00;42.50;;;;;;4983835;28;20539;-92
2022/04/18 04:23:04;;;;;;;3.67;3.40;;;9.90;44.10;;;;;;4982012;28;20939;-93
2022/04/18 04:25:58;;;;;;;3.43;2.80;;;9.90;45.30;;;;;;4982733;28;20474;-92
2022/04/18 04:28:40;;;;;;;5.27;3.70;;;9.90;45.50;;;;;;5053730;28;21006;-89
2022/04/18 04:31:09;;;;;;;3.83;2.60;;;9.80;45.50;;;;;;4964926;28;20440;-90
2022/04/18 04:33:38;;;;;;;3.80;2.87;;;9.80;44.80;;;;;;4984477;28;20458;-89
2022/04/18 04:36:12;;;;;;;3.43;3.07;;;9.80;44.80;;;;;;4960605;28;20448;-89
2022/04/18 04:38:43;;;;;;;3.67;2.87;;;9.70;44.40;;;;;;4984701;28;20470;-89
2022/04/18 04:41:18;;;;;;;3.47;2.90;;;9.70;44.20;;;;;;4963655;28;20455;-89
2022/04/18 04:43:55;;;;;;;4.13;3.33;;;9.70;44.20;;;;;;5049317;28;20975;-88
2022/04/18 04:46:32;;;;;;;6.10;4.23;;;9.70;44.70;;;;;;4968317;28;20464;-88
2022/04/18 04:49:09;;;;;;;5.30;4.10;;;9.70;44.90;;;;;;4981538;28;21029;-89
2022/04/18 04:51:41;;;;;;;5.43;4.20;;;9.70;44.50;;;;;;4974690;28;20559;-89
2022/04/18 04:54:10;;;;;;;5.00;3.30;;;9.70;44.50;;;;;;4960836;28;21639;-88
2022/04/18 04:56:41;;;;;;;3.50;3.20;;;9.70;44.30;;;;;;4963934;28;20450;-89
2022/04/18 04:59:11;;;;;;;6.40;3.30;;;9.70;44.10;;;;;;4962131;28;20479;-88
2022/04/18 05:01:40;;;;;;;6.13;3.70;;;9.70;44.20;;;;;;4985798;28;21298;-89
2022/04/18 05:04:14;;;;;;;4.80;3.80;;;9.70;44.50;;;;;;4975402;28;20456;-88
2022/04/18 05:06:44;;;;;;;3.40;3.10;;;9.60;44.90;;;;;;4974379;28;20488;-89
2022/04/18 05:09:19;;;;;;;5.97;3.93;;;9.60;45.20;;;;;;4982794;28;20471;-93
2022/04/18 05:11:48;;;;;;;5.60;4.33;;;9.60;45.80;;;;;;4966968;28;20990;-88
2022/04/18 05:14:16;;;;;;;3.63;3.33;;;9.50;45.50;;;;;;4994228;28;20440;-88
2022/04/18 05:16:55;;;;;;;4.87;3.87;;;9.50;45.90;;;;;;4988308;28;20955;-88
2022/04/18 05:19:32;;;;;;;4.73;3.67;;;9.50;45.70;;;;;;4981389;28;20467;-90
2022/04/18 05:22:23;;;;;;;5.70;3.60;;;9.40;46.00;;;;;;4985270;28;20448;-90
2022/04/18 05:24:55;;;;;;;4.77;3.37;;;9.50;46.10;;;;;;4985715;28;20448;-88
2022/04/18 05:27:37;;;;;;;4.10;3.10;;;9.60;45.80;;;;;;4991377;28;20470;-88
2022/04/18 05:30:10;;;;;;;3.70;3.33;;;9.60;45.70;;;;;;4963483;28;22130;-89
2022/04/18 05:32:39;;;;;;;5.73;5.23;;;9.60;45.60;;;;;;4970822;28;20501;-89
2022/04/18 05:35:11;;;;;;;5.33;4.70;;;9.60;45.70;;;;;;4966465;28;20501;-89
2022/04/18 05:37:41;;;;;;;5.47;4.93;;;9.50;45.80;;;;;;4978329;28;21200;-90
2022/04/18 05:40:44;;;;;;;5.57;5.07;;;9.60;46.10;;;;;;4993689;28;20539;-91
2022/04/18 05:43:14;;;;;;;5.10;4.33;;;9.60;46.30;;;;;;4982450;28;20458;-89
2022/04/18 05:45:42;;;;;;;3.80;3.50;;;9.60;46.70;;;;;;4995833;28;20918;-89
2022/04/18 05:48:14;;;;;;;4.23;3.80;;;9.60;47.00;;;;;;4999274;28;20459;-89
2022/04/18 05:50:51;;;;;;;4.53;4.13;;;9.70;47.10;;;;;;4971230;28;20471;-94
2022/04/18 05:53:28;;;;;;;5.53;3.50;;;9.70;46.70;;;;;;4964224;28;20457;-90
2022/04/18 05:56:05;;;;;;;3.77;3.47;;;9.80;46.80;;;;;;4980367;28;20456;-90
2022/04/18 05:58:46;;;;;;;4.40;3.83;;;9.80;47.20;;;;;;4983775;28;20474;-89
2022/04/18 06:01:33;;;;;;;5.03;4.47;;;9.80;47.20;;;;;;4993156;28;20444;-90
2022/04/18 06:04:06;;;;;;;5.80;4.80;;;9.80;47.50;;;;;;4980869;28;20441;-91
2022/04/18 06:06:35;;;;;;;6.20;3.87;;;9.70;47.50;;;;;;4979732;28;20459;-88
2022/04/18 06:09:05;;;;;;;4.50;3.83;;;9.80;47.60;;;;;;4991972;28;20475;-89
2022/04/18 06:11:34;;;;;;;5.43;4.10;;;9.80;47.40;;;;;;4967538;28;20871;-90
2022/04/18 06:14:12;;;;;;;7.77;5.73;;;9.90;47.50;;;;;;4961674;28;21232;-89
2022/04/18 06:16:45;;;;;;;25.30;15.13;;;9.90;47.50;;;;;;5069378;28;20453;-90
2022/04/18 06:19:15;;;;;;;27.97;16.20;;;9.90;47.60;;;;;;5051400;28;20510;-89
2022/04/18 06:21:44;;;;;;;15.90;11.30;;;10.00;47.00;;;;;;4963399;28;20460;-90
2022/04/18 06:24:14;;;;;;;12.80;7.47;;;10.00;47.00;;;;;;4979143;28;20447;-91
2022/04/18 06:26:46;;;;;;;6.17;5.57;;;10.10;47.00;;;;;;4973410;28;20475;-89
2022/04/18 06:29:15;;;;;;;5.50;4.80;;;10.10;46.80;;;;;;4977190;28;20476;-90
2022/04/18 06:31:49;;;;;;;4.90;4.50;;;10.10;46.90;;;;;;5054581;28;20455;-92
2022/04/18 06:34:19;;;;;;;5.80;5.27;;;10.10;46.90;;;;;;5054866;28;20451;-91
2022/04/18 06:36:47;;;;;;;6.93;5.20;;;10.20;47.30;;;;;;4978540;28;20451;-90
2022/04/18 06:39:43;;;;;;;8.20;5.93;;;10.20;47.10;;;;;;4993014;28;20479;-92
2022/04/18 06:42:15;;;;;;;8.03;4.93;;;10.30;46.80;;;;;;4970361;28;20443;-90
2022/04/18 06:44:54;;;;;;;8.87;5.10;;;10.40;46.90;;;;;;4970751;28;20717;-90
2022/04/18 06:47:22;;;;;;;5.77;4.20;;;10.40;46.80;;;;;;4980794;28;20452;-89
2022/04/18 06:50:14;;;;;;;5.90;4.17;;;10.50;46.00;;;;;;4967895;28;20502;-93
2022/04/18 06:53:15;;;;;;;4.20;3.60;;;10.50;45.30;;;;;;4994417;28;20444;-92
2022/04/18 06:59:02;;;;;;;7.27;4.37;;;10.60;45.80;;;;;;4967304;28;20815;-91
2022/04/18 07:01:31;;;;;;;5.37;4.83;;;10.70;46.00;;;;;;4963425;28;20443;-90
2022/04/18 07:03:58;;;;;;;4.40;3.83;;;10.80;45.90;;;;;;4981293;28;20443;-90
2022/04/18 07:06:26;;;;;;;4.37;3.97;;;10.90;45.90;;;;;;4971404;28;20491;-90
2022/04/18 07:08:53;;;;;;;4.20;3.80;;;10.90;46.10;;;;;;4965761;28;20468;-92
2022/04/18 07:11:58;;;;;;;6.57;3.40;;;11.00;45.90;;;;;;4999324;28;20440;-90
2022/04/18 07:14:27;;;;;;;5.10;3.50;;;11.20;45.80;;;;;;4986074;28;21681;-92
2022/04/18 07:16:59;;;;;;;4.33;3.93;;;11.20;45.20;;;;;;4970290;28;20818;-90
2022/04/18 07:19:28;;;;;;;3.83;3.27;;;11.30;45.00;;;;;;4964150;28;20479;-90
2022/04/18 07:21:58;;;;;;;5.23;3.23;;;11.40;44.60;;;;;;4976364;28;20436;-90
2022/04/18 07:24:26;;;;;;;3.90;3.40;;;11.40;44.60;;;;;;4992515;28;20452;-93
2022/04/18 07:27:01;;;;;;;4.47;3.90;;;11.40;44.60;;;;;;4960213;28;20461;-90
2022/04/18 07:29:30;;;;;;;6.13;3.37;;;11.50;44.90;;;;;;4970966;28;20510;-90
2022/04/18 07:31:58;;;;;;;5.83;3.33;;;11.70;45.20;;;;;;4965160;28;20451;-90
2022/04/18 07:34:26;;;;;;;4.13;3.73;;;11.90;44.60;;;;;;4985938;28;20448;-92
2022/04/18 07:36:54;;;;;;;5.77;3.90;;;12.20;44.50;;;;;;4991354;28;21075;-91
2022/04/18 07:39:23;;;;;;;4.37;3.50;;;12.30;44.10;;;;;;4968868;28;20508;-90
2022/04/18 07:41:54;;;;;;;4.77;3.50;;;12.50;43.90;;;;;;4965696;28;20452;-92
2022/04/18 07:44:27;;;;;;;3.47;3.27;;;12.60;43.60;;;;;;4961286;28;20452;-92
2022/04/18 07:46:57;;;;;;;4.07;3.67;;;12.80;43.80;;;;;;4992740;28;20491;-91
2022/04/18 07:49:34;;;;;;;4.60;3.70;;;12.80;43.30;;;;;;4968949;28;20555;-92
2022/04/18 07:52:04;;;;;;;3.93;3.63;;;13.00;43.40;;;;;;4983472;28;20462;-92
2022/04/18 07:54:36;;;;;;;4.00;3.40;;;13.10;42.90;;;;;;4980613;28;20444;-92
2022/04/18 07:57:04;;;;;;;6.40;3.13;;;13.10;42.90;;;;;;4967262;28;20455;-91
2022/04/18 07:59:57;;;;;;;4.30;3.80;;;13.00;41.40;;;;;;4975193;28;20487;-93
2022/04/18 08:02:25;;;;;;;4.63;3.80;;;13.20;42.90;;;;;;4965662;28;20573;-90
2022/04/18 08:05:07;;;;;;;7.70;4.10;;;13.50;43.10;;;;;;4992206;28;20975;-91
2022/04/18 08:07:45;;;;;;;4.47;3.10;;;13.70;42.20;;;;;;4977388;28;20521;-93
2022/04/18 08:10:14;;;;;;;3.70;2.90;;;13.70;40.30;;;;;;4977270;28;20910;-93
2022/04/18 08:12:41;;;;;;;3.80;3.27;;;13.70;40.10;;;;;;4958828;28;20453;-93
2022/04/18 08:15:29;;;;;;;3.80;2.70;;;13.70;41.10;;;;;;4976777;28;20447;-92
2022/04/18 08:17:58;;;;;;;4.77;3.47;;;13.90;40.00;;;;;;4976217;28;20518;-92
2022/04/18 08:20:45;;;;;;;3.67;2.43;;;14.00;38.60;;;;;;4966567;28;20484;-91
2022/04/18 08:23:12;;;;;;;3.07;2.60;;;14.10;37.90;;;;;;5050161;28;20467;-91
2022/04/18 08:26:09;;;;;;;4.63;2.97;;;14.20;37.60;;;;;;5002734;28;20619;-91
2022/04/18 08:28:52;;;;;;;2.87;2.67;;;14.30;37.90;;;;;;4980065;28;21127;-91
2022/04/18 08:31:23;;;;;;;2.30;2.07;;;14.50;37.20;;;;;;4980977;28;20447;-91
2022/04/18 08:34:04;;;;;;;2.87;2.67;;;14.70;37.60;;;;;;4978329;28;21232;-92
2022/04/18 08:36:33;;;;;;;2.53;2.10;;;14.90;36.70;;;;;;4986209;28;20471;-93
2022/04/18 08:39:03;;;;;;;3.80;3.20;;;15.20;35.90;;;;;;4966188;28;20468;-91
2022/04/18 08:41:39;;;;;;;4.70;2.77;;;15.40;35.80;;;;;;4979347;28;20540;-90
2022/04/18 08:44:13;;;;;;;3.20;2.43;;;15.40;33.60;;;;;;4984448;28;20508;-91
2022/04/18 08:46:42;;;;;;;2.40;2.20;;;15.40;34.40;;;;;;4979332;28;21278;-92
2022/04/18 08:54:51;;;;;;;2.77;2.30;;;15.90;33.10;;;;;;4981826;28;20432;-89
2022/04/18 08:57:18;;;;;;;5.43;3.37;;;15.90;32.40;;;;;;4997824;28;20448;-90
2022/04/18 08:59:47;;;;;;;3.13;2.80;;;16.00;33.10;;;;;;4967213;28;20472;-91
2022/04/18 09:02:17;;;;;;;5.10;2.90;;;15.90;31.30;;;;;;4968615;28;20483;-91
2022/04/18 09:05:09;;;;;;;5.40;4.00;;;16.20;33.00;;;;;;4985532;28;21007;-90
2022/04/18 09:07:37;;;;;;;4.90;3.53;;;16.20;31.60;;;;;;4978117;28;20456;-90
2022/04/18 09:10:05;;;;;;;3.40;2.40;;;16.40;30.90;;;;;;4970291;28;20470;-90
2022/04/18 09:12:34;;;;;;;2.60;2.40;;;16.40;30.50;;;;;;4970804;28;20523;-90
2022/04/18 09:15:35;;;;;;;4.20;3.10;;;16.50;30.40;;;;;;4976261;28;20525;-92
2022/04/18 09:18:12;;;;;;;5.90;4.87;;;16.80;31.20;;;;;;4982847;28;20860;-91
2022/04/18 09:20:47;;;;;;;3.50;2.97;;;16.90;29.90;;;;;;4994212;28;20446;-91
2022/04/18 09:23:22;;;;;;;2.83;2.20;;;16.90;28.40;;;;;;4970544;28;20935;-92
2022/04/18 09:25:53;;;;;;;8.07;3.77;;;16.90;29.20;;;;;;4964048;28;20451;-91
2022/04/18 09:28:27;;;;;;;5.80;4.67;;;17.20;28.70;;;;;;4975256;28;20549;-91
2022/04/18 09:31:01;;;;;;;6.80;2.73;;;17.30;27.70;;;;;;4977078;28;20539;-89
2022/04/18 09:33:34;;;;;;;2.37;2.17;;;17.40;27.60;;;;;;4997049;28;20505;-91
2022/04/18 09:36:10;;;;;;;4.07;2.73;;;17.60;28.10;;;;;;4986405;28;21035;-90
2022/04/18 09:38:43;;;;;;;4.13;2.37;;;17.90;28.00;;;;;;4968945;28;20470;-91
2022/04/18 09:41:36;;;;;;;3.30;2.40;;;18.00;28.00;;;;;;4983837;28;20482;-91
2022/04/18 09:44:31;;;;;;;4.90;2.70;;;18.00;27.50;;;;;;4972657;28;20485;-91
2022/04/18 09:47:00;;;;;;;3.20;2.90;;;18.30;27.20;;;;;;4977499;28;20532;-90
2022/04/18 09:49:41;;;;;;;4.30;2.57;;;18.10;27.20;;;;;;4977699;28;20480;-90
2022/04/18 09:52:16;;;;;;;2.63;2.27;;;18.00;27.90;;;;;;4999344;28;21142;-90
2022/04/18 09:54:51;;;;;;;3.97;2.50;;;18.40;28.00;;;;;;4989601;28;20539;-89
2022/04/18 09:57:24;;;;;;;2.83;2.37;;;18.30;27.50;;;;;;4991435;28;20436;-91
2022/04/18 09:59:54;;;;;;;3.63;2.37;;;18.40;27.10;;;;;;4995162;28;20472;-90
2022/04/18 10:02:22;;;;;;;2.87;2.63;;;18.20;27.00;;;;;;4993681;28;20440;-92
2022/04/18 10:04:53;;;;;;;3.30;2.50;;;18.20;27.40;;;;;;4983320;28;20885;-89
2022/04/18 10:07:22;;;;;;;4.00;2.30;;;18.60;27.60;;;;;;4978125;28;20467;-88
2022/04/18 10:09:51;;;;;;;2.50;2.27;;;18.80;27.30;;;;;;4983102;28;20789;-90
2022/04/18 10:12:20;;;;;;;3.90;3.00;;;19.20;27.50;;;;;;4976547;28;21046;-91
2022/04/18 10:14:48;;;;;;;3.23;2.93;;;19.60;26.20;;;;;;4990955;28;20497;-91
2022/04/18 10:17:17;;;;;;;5.70;2.43;;;19.60;25.80;;;;;;4983548;28;20596;-90
2022/04/18 10:20:14;;;;;;;2.33;1.90;;;19.50;25.20;;;;;;4965565;28;20514;-89
2022/04/18 10:23:07;;;;;;;2.30;2.07;;;19.10;25.30;;;;;;4978703;28;20455;-91
2022/04/18 10:26:05;;;;;;;2.37;2.00;;;19.40;25.60;;;;;;4989032;28;20447;-92
2022/04/18 10:28:36;;;;;;;3.00;2.20;;;19.70;25.80;;;;;;4975287;28;20475;-90
2022/04/18 10:31:11;;;;;;;2.80;2.50;;;19.70;25.60;;;;;;4966389;28;20480;-91
2022/04/18 10:33:41;;;;;;;2.87;2.37;;;20.00;25.30;;;;;;5059731;28;20484;-90
2022/04/18 10:36:12;;;;;;;3.43;2.33;;;20.30;25.00;;;;;;4997260;28;20535;-92
2022/04/18 10:38:44;;;;;;;4.57;2.53;;;20.30;25.00;;;;;;4991122;28;20468;-91
2022/04/18 10:41:34;;;;;;;3.57;2.27;;;20.10;25.20;;;;;;4991459;28;20986;-91
2022/04/18 10:44:05;;;;;;;2.50;2.17;;;20.00;25.20;;;;;;4977540;28;20480;-91
2022/04/18 10:46:33;;;;;;;3.13;2.53;;;20.10;25.30;;;;;;4977537;28;20974;-90
2022/04/18 10:49:03;;;;;;;3.70;2.30;;;20.10;25.20;;;;;;4983721;28;20522;-90
2022/04/18 10:51:37;;;;;;;3.00;2.47;;;20.10;25.20;;;;;;4959032;28;20444;-92
2022/04/18 10:54:07;;;;;;;2.53;2.10;;;20.30;24.80;;;;;;4989707;28;20445;-90
2022/04/18 10:56:54;;;;;;;3.53;2.60;;;20.30;24.80;;;;;;4991139;28;20475;-91
2022/04/18 10:59:24;;;;;;;3.00;2.70;;;20.40;24.90;;;;;;4973985;28;21012;-91
2022/04/18 11:01:55;;;;;;;3.53;2.47;;;20.60;24.70;;;;;;4984327;28;20460;-91
2022/04/18 11:04:27;;;;;;;3.20;2.80;;;20.70;24.00;;;;;;4983708;28;20509;-90
2022/04/18 11:07:01;;;;;;;2.83;2.00;;;20.90;24.00;;;;;;4963952;28;20468;-92
2022/04/18 11:09:31;;;;;;;2.50;1.97;;;21.00;24.00;;;;;;4966644;28;20512;-90
2022/04/18 11:12:02;;;;;;;2.80;2.00;;;21.40;24.70;;;;;;4965612;28;20456;-90
2022/04/18 11:14:44;;;;;;;2.17;2.00;;;21.70;23.40;;;;;;4966750;28;20516;-89
2022/04/18 11:17:24;;;;;;;3.13;1.97;;;21.50;23.50;;;;;;4992370;28;20478;-91
2022/04/18 11:19:53;;;;;;;4.60;2.10;;;21.60;23.30;;;;;;4993448;28;20955;-92
2022/04/18 11:22:24;;;;;;;4.60;2.33;;;21.90;23.40;;;;;;4977160;28;20460;-90
2022/04/18 11:25:04;;;;;;;5.10;3.00;;;22.00;23.30;;;;;;4989394;28;20448;-91
2022/04/18 11:27:36;;;;;;;5.13;2.63;;;22.10;22.70;;;;;;4981764;28;20475;-91
2022/04/18 11:30:11;;;;;;;2.93;2.20;;;21.80;23.00;;;;;;4972867;28;20479;-90
2022/04/18 11:32:40;;;;;;;3.27;2.30;;;21.60;22.80;;;;;;4965829;28;20443;-91
2022/04/18 11:35:10;;;;;;;2.97;2.77;;;21.70;23.50;;;;;;4964143;28;20501;-90
2022/04/18 11:37:43;;;;;;;2.73;2.17;;;21.70;22.00;;;;;;4980670;28;20448;-91
2022/04/18 11:40:12;;;;;;;3.53;2.33;;;21.00;22.60;;;;;;4975579;28;21299;-90
2022/04/18 11:42:42;;;;;;;2.63;2.43;;;21.10;23.90;;;;;;4993692;28;20455;-90
2022/04/18 11:45:12;;;;;;;2.33;2.13;;;21.10;24.30;;;;;;4963101;28;20507;-91
2022/04/18 11:47:44;;;;;;;2.40;2.20;;;21.30;23.40;;;;;;4976424;28;20460;-89
2022/04/18 11:50:21;;;;;;;2.77;2.17;;;21.30;23.10;;;;;;4988485;28;20471;-92
2022/04/18 11:53:00;;;;;;;2.57;2.10;;;21.30;23.30;;;;;;4961120;28;20451;-91
2022/04/18 11:55:28;;;;;;;2.97;2.50;;;21.20;22.90;;;;;;4976138;28;20875;-90
2022/04/18 11:57:56;;;;;;;3.80;2.00;;;21.50;23.70;;;;;;4989508;28;20436;-89
2022/04/18 12:08:57;;;;;;;2.70;1.80;;;21.70;24.30;;;;;;4967176;28;20574;-89
2022/04/18 12:11:25;;;;;;;2.47;2.10;;;22.00;22.50;;;;;;4988426;28;20478;-91
2022/04/18 12:13:53;;;;;;;1.80;1.50;;;21.90;22.10;;;;;;4977049;28;20986;-92
2022/04/18 12:16:22;;;;;;;6.90;2.50;;;22.00;23.10;;;;;;4976339;28;20460;-89
2022/04/18 12:18:55;;;;;;;2.70;1.90;;;21.90;22.80;;;;;;4962310;28;20456;-90
2022/04/18 12:21:25;;;;;;;2.33;1.97;;;22.20;22.30;;;;;;4978918;28;20448;-92
2022/04/18 12:23:55;;;;;;;2.23;1.90;;;22.50;22.20;;;;;;4995346;28;20448;-91
2022/04/18 12:26:28;;;;;;;2.73;1.90;;;22.90;21.80;;;;;;4978503;28;20810;-92
2022/04/18 12:29:01;;;;;;;2.83;2.00;;;23.00;21.60;;;;;;4965974;28;20549;-91
2022/04/18 12:31:29;;;;;;;4.37;3.10;;;22.80;21.20;;;;;;4994316;28;21138;-91
2022/04/18 12:33:58;;;;;;;4.13;1.93;;;22.80;21.70;;;;;;4996715;28;21097;-89
2022/04/18 12:36:27;;;;;;;2.73;1.67;;;23.10;21.20;;;;;;4995149;28;20444;-91
2022/04/18 12:38:55;;;;;;;1.90;1.70;;;23.30;21.70;;;;;;4978709;28;20463;-92
2022/04/18 12:41:30;;;;;;;3.57;1.60;;;23.30;21.80;;;;;;4963380;28;20548;-91
2022/04/18 12:43:58;;;;;;;1.50;1.40;;;23.60;22.40;;;;;;4982485;28;20996;-92
2022/04/18 12:46:29;;;;;;;3.47;2.00;;;23.30;21.50;;;;;;4990130;28;20531;-91
2022/04/18 12:49:04;;;;;;;2.00;1.80;;;23.60;21.70;;;;;;4974343;28;20563;-90
2022/04/18 12:51:34;;;;;;;1.97;1.87;;;23.50;21.00;;;;;;4993282;28;20468;-90
2022/04/18 12:54:05;;;;;;;2.83;1.90;;;23.80;21.00;;;;;;5004772;28;20465;-92
2022/04/18 12:56:44;;;;;;;1.93;1.57;;;23.70;19.90;;;;;;4982304;28;20459;-90
2022/04/18 12:59:14;;;;;;;1.40;1.30;;;23.30;20.80;;;;;;4998448;28;20467;-90
2022/04/18 13:01:42;;;;;;;3.10;2.30;;;23.40;21.60;;;;;;4993925;28;20440;-92
2022/04/18 13:04:22;;;;;;;1.53;1.43;;;23.60;21.60;;;;;;4994796;28;20965;-92
2022/04/18 13:06:57;;;;;;;2.37;1.50;;;23.30;20.10;;;;;;4969467;28;20448;-91
2022/04/18 13:09:25;;;;;;;2.00;1.50;;;23.20;20.20;;;;;;4991738;28;20476;-91
2022/04/18 13:12:02;;;;;;;2.27;1.80;;;23.00;20.30;;;;;;4983978;28;21023;-92
2022/04/18 13:14:31;;;;;;;3.10;1.60;;;23.50;21.10;;;;;;5002319;28;20440;-91
2022/04/18 13:17:06;;;;;;;1.63;1.17;;;23.70;20.70;;;;;;4982017;28;20456;-91
2022/04/18 13:19:35;;;;;;;1.87;1.50;;;23.50;21.60;;;;;;4971877;28;21059;-91
2022/04/18 13:22:04;;;;;;;1.97;1.50;;;23.70;21.20;;;;;;4966841;28;20448;-91
2022/04/18 13:24:32;;;;;;;1.70;1.60;;;23.50;20.00;;;;;;4964204;28;20452;-91
2022/04/18 13:27:01;;;;;;;3.40;1.30;;;23.60;19.60;;;;;;4977001;28;20511;-91
2022/04/18 13:29:29;;;;;;;1.33;1.23;;;23.50;19.90;;;;;;4964462;28;20467;-90
2022/04/18 13:31:57;;;;;;;2.80;1.70;;;23.70;20.20;;;;;;4967107;28;20440;-91
2022/04/18 13:34:26;;;;;;;1.73;1.33;;;24.00;18.90;;;;;;4993781;28;20440;-91
2022/04/18 13:37:00;;;;;;;1.50;1.40;;;24.20;18.20;;;;;;4988511;28;20496;-91
2022/04/18 13:39:28;;;;;;;1.70;1.60;;;24.00;18.70;;;;;;4983600;28;20468;-90
2022/04/18 13:41:56;;;;;;;1.67;1.57;;;23.80;18.30;;;;;;4995504;28;20455;-90